sensor_id;sensor_type;location;lat;lon;timestamp;temperature;humidity
51793;DHT22;37850;53.178;6.376;2024-01-10T00:00:03;-3.60;99.90
51793;DHT22;37850;53.178;6.376;2024-01-10T00:02:30;-2.40;99.90
51793;DHT22;37850;53.178;6.376;2024-01-10T00:04:56;-3.60;99.90
51793;DHT22;37850;53.178;6.376;2024-01-10T00:07:21;-3.60;99.90
51793;DHT22;37850;53.178;6.376;2024-01-10T00:09:47;-3.60;99.90
51793;DHT22;37850;53.178;6.376;2024-01-10T00:12:14;-3.20;99.90
51793;DHT22;37850;53.178;6.376;2024-01-10T00:14:40;-3.20;99.90
51793;DHT22;37850;53.178;6.376;2024-01-10T00:17:06;-3.60;99.90
51793;DHT22;37850;53.178;6.376;2024-01-10T00:19:32;-2.10;99.90
51793;DHT22;37850;53.178;6.376;2024-01-10T00:21:58;-3.60;99.90
51793;DHT22;37850;53.178;6.376;2024-01-10T00:24:25;-2.10;99.90
51793;DHT22;37850;53.178;6.376;2024-01-10T00:26:52;-3.60;99.90
51793;DHT22;37850;53.178;6.376;2024-01-10T00:29:18;-3.70;99.90
51793;DHT22;37850;53.178;6.376;2024-01-10T00:31:43;-3.70;99.90
51793;DHT22;37850;53.178;6.376;2024-01-10T00:34:09;-3.60;99.90
51793;DHT22;37850;53.178;6.376;2024-01-10T00:36:35;-3.40;99.90
51793;DHT22;37850;53.178;6.376;2024-01-10T00:39:01;-3.70;99.90
51793;DHT22;37850;53.178;6.376;2024-01-10T00:41:27;-3.70;99.90
51793;DHT22;37850;53.178;6.376;2024-01-10T00:43:53;-3.70;99.90
51793;DHT22;37850;53.178;6.376;2024-01-10T00:46:19;-3.70;99.90
51793;DHT22;37850;53.178;6.376;2024-01-10T00:48:46;-3.80;99.90
51793;DHT22;37850;53.178;6.376;2024-01-10T00:51:12;-3.80;99.90
51793;DHT22;37850;53.178;6.376;2024-01-10T00:53:38;-3.80;99.90
51793;DHT22;37850;53.178;6.376;2024-01-10T00:56:07;-3.90;99.90
51793;DHT22;37850;53.178;6.376;2024-01-10T00:58:35;-3.80;99.90
51793;DHT22;37850;53.178;6.376;2024-01-10T01:01:01;-3.90;99.90
51793;DHT22;37850;53.178;6.376;2024-01-10T01:03:27;-3.30;99.90
51793;DHT22;37850;53.178;6.376;2024-01-10T01:05:54;-3.90;99.90
51793;DHT22;37850;53.178;6.376;2024-01-10T01:08:20;-4.00;99.90
51793;DHT22;37850;53.178;6.376;2024-01-10T01:10:46;-3.10;99.90
51793;DHT22;37850;53.178;6.376;2024-01-10T01:13:12;-4.10;99.90
51793;DHT22;37850;53.178;6.376;2024-01-10T01:15:38;-4.10;99.90
51793;DHT22;37850;53.178;6.376;2024-01-10T01:18:04;-4.20;99.90
51793;DHT22;37850;53.178;6.376;2024-01-10T01:20:32;-4.30;99.90
51793;DHT22;37850;53.178;6.376;2024-01-10T01:22:58;-4.30;99.90
51793;DHT22;37850;53.178;6.376;2024-01-10T01:25:24;-4.30;99.90
51793;DHT22;37850;53.178;6.376;2024-01-10T01:27:50;-4.30;99.90
51793;DHT22;37850;53.178;6.376;2024-01-10T01:30:19;-4.30;99.90
51793;DHT22;37850;53.178;6.376;2024-01-10T01:32:47;-3.90;99.90
51793;DHT22;37850;53.178;6.376;2024-01-10T01:35:13;-4.40;99.90
51793;DHT22;37850;53.178;6.376;2024-01-10T01:37:39;-4.40;99.90
51793;DHT22;37850;53.178;6.376;2024-01-10T01:40:06;-4.40;99.90
51793;DHT22;37850;53.178;6.376;2024-01-10T01:42:32;-4.40;99.90
51793;DHT22;37850;53.178;6.376;2024-01-10T01:44:58;-4.40;99.90
51793;DHT22;37850;53.178;6.376;2024-01-10T01:47:25;-4.40;99.90
51793;DHT22;37850;53.178;6.376;2024-01-10T01:49:52;-4.40;99.90
51793;DHT22;37850;53.178;6.376;2024-01-10T01:52:19;-4.40;99.90
51793;DHT22;37850;53.178;6.376;2024-01-10T01:54:45;-4.40;99.90
51793;DHT22;37850;53.178;6.376;2024-01-10T01:57:14;-4.40;99.90
51793;DHT22;37850;53.178;6.376;2024-01-10T01:59:40;-4.40;99.90
51793;DHT22;37850;53.178;6.376;2024-01-10T02:02:06;-4.40;99.90
51793;DHT22;37850;53.178;6.376;2024-01-10T02:04:33;-3.60;99.90
51793;DHT22;37850;53.178;6.376;2024-01-10T02:07:01;-4.50;99.90
51793;DHT22;37850;53.178;6.376;2024-01-10T02:09:26;-3.00;99.90
51793;DHT22;37850;53.178;6.376;2024-01-10T02:11:54;-5.20;99.90
51793;DHT22;37850;53.178;6.376;2024-01-10T02:14:20;-3.90;99.90
51793;DHT22;37850;53.178;6.376;2024-01-10T02:16:47;-4.50;99.90
51793;DHT22;37850;53.178;6.376;2024-01-10T02:19:22;-3.30;99.90
51793;DHT22;37850;53.178;6.376;2024-01-10T02:21:50;-4.50;99.90
51793;DHT22;37850;53.178;6.376;2024-01-10T02:24:17;-4.50;99.90
51793;DHT22;37850;53.178;6.376;2024-01-10T02:26:43;-4.50;99.90
51793;DHT22;37850;53.178;6.376;2024-01-10T02:29:09;-4.50;99.90
51793;DHT22;37850;53.178;6.376;2024-01-10T02:31:35;-4.50;99.90
51793;DHT22;37850;53.178;6.376;2024-01-10T02:34:01;-3.40;99.90
51793;DHT22;37850;53.178;6.376;2024-01-10T02:36:26;-4.40;99.90
51793;DHT22;37850;53.178;6.376;2024-01-10T02:38:53;-4.50;99.90
51793;DHT22;37850;53.178;6.376;2024-01-10T02:41:19;-4.50;99.90
51793;DHT22;37850;53.178;6.376;2024-01-10T02:43:47;-4.50;99.90
51793;DHT22;37850;53.178;6.376;2024-01-10T02:46:12;-3.30;99.90
51793;DHT22;37850;53.178;6.376;2024-01-10T02:48:38;-4.50;99.90
51793;DHT22;37850;53.178;6.376;2024-01-10T02:51:05;-3.10;99.90
51793;DHT22;37850;53.178;6.376;2024-01-10T02:53:31;-4.50;99.90
51793;DHT22;37850;53.178;6.376;2024-01-10T02:55:57;-4.50;99.90
51793;DHT22;37850;53.178;6.376;2024-01-10T02:58:23;-4.60;99.90
51793;DHT22;37850;53.178;6.376;2024-01-10T03:00:51;-4.50;99.90
51793;DHT22;37850;53.178;6.376;2024-01-10T03:03:17;-4.50;99.90
51793;DHT22;37850;53.178;6.376;2024-01-10T03:05:43;-4.50;99.90
51793;DHT22;37850;53.178;6.376;2024-01-10T03:08:09;-4.60;99.90
51793;DHT22;37850;53.178;6.376;2024-01-10T03:10:35;-4.60;99.90
51793;DHT22;37850;53.178;6.376;2024-01-10T03:13:01;-4.60;99.90
51793;DHT22;37850;53.178;6.376;2024-01-10T03:15:27;-4.60;99.90
51793;DHT22;37850;53.178;6.376;2024-01-10T03:17:53;-4.60;99.90
51793;DHT22;37850;53.178;6.376;2024-01-10T03:20:19;-4.50;99.90
51793;DHT22;37850;53.178;6.376;2024-01-10T03:22:45;-4.50;99.90
51793;DHT22;37850;53.178;6.376;2024-01-10T03:25:11;-2.60;99.90
51793;DHT22;37850;53.178;6.376;2024-01-10T03:27:37;-4.50;99.90
51793;DHT22;37850;53.178;6.376;2024-01-10T03:30:03;-4.50;99.90
51793;DHT22;37850;53.178;6.376;2024-01-10T03:32:29;-4.50;99.90
51793;DHT22;37850;53.178;6.376;2024-01-10T03:34:55;-4.50;99.90
51793;DHT22;37850;53.178;6.376;2024-01-10T03:37:21;-4.50;99.90
51793;DHT22;37850;53.178;6.376;2024-01-10T03:39:46;-4.20;99.90
51793;DHT22;37850;53.178;6.376;2024-01-10T03:42:12;-4.50;99.90
51793;DHT22;37850;53.178;6.376;2024-01-10T03:44:38;-4.50;99.90
51793;DHT22;37850;53.178;6.376;2024-01-10T03:47:04;-4.50;99.90
51793;DHT22;37850;53.178;6.376;2024-01-10T03:49:31;-3.50;99.90
51793;DHT22;37850;53.178;6.376;2024-01-10T03:51:56;-4.50;99.90
51793;DHT22;37850;53.178;6.376;2024-01-10T03:54:23;-4.50;99.90
51793;DHT22;37850;53.178;6.376;2024-01-10T03:56:49;-4.20;99.90
51793;DHT22;37850;53.178;6.376;2024-01-10T03:59:15;-2.50;99.90
51793;DHT22;37850;53.178;6.376;2024-01-10T04:01:41;-4.60;99.90
51793;DHT22;37850;53.178;6.376;2024-01-10T04:04:07;-4.60;99.90
51793;DHT22;37850;53.178;6.376;2024-01-10T04:06:33;-4.60;99.90
51793;DHT22;37850;53.178;6.376;2024-01-10T04:09:00;-4.60;99.90
51793;DHT22;37850;53.178;6.376;2024-01-10T04:11:26;-4.60;99.90
51793;DHT22;37850;53.178;6.376;2024-01-10T04:13:53;-4.60;99.90
51793;DHT22;37850;53.178;6.376;2024-01-10T04:16:18;-4.60;99.90
51793;DHT22;37850;53.178;6.376;2024-01-10T04:18:44;-4.60;99.90
51793;DHT22;37850;53.178;6.376;2024-01-10T04:21:10;-4.00;99.90
51793;DHT22;37850;53.178;6.376;2024-01-10T04:23:37;-4.60;99.90
51793;DHT22;37850;53.178;6.376;2024-01-10T04:26:04;-4.60;99.90
51793;DHT22;37850;53.178;6.376;2024-01-10T04:28:30;-3.90;99.90
51793;DHT22;37850;53.178;6.376;2024-01-10T04:30:56;-4.60;99.90
51793;DHT22;37850;53.178;6.376;2024-01-10T04:33:21;-4.60;99.90
51793;DHT22;37850;53.178;6.376;2024-01-10T04:35:47;-4.60;99.90
51793;DHT22;37850;53.178;6.376;2024-01-10T04:38:13;-4.10;99.90
51793;DHT22;37850;53.178;6.376;2024-01-10T04:40:39;-4.50;99.90
51793;DHT22;37850;53.178;6.376;2024-01-10T04:43:05;-4.50;99.90
51793;DHT22;37850;53.178;6.376;2024-01-10T04:45:31;-4.50;99.90
51793;DHT22;37850;53.178;6.376;2024-01-10T04:47:57;-4.00;99.90
51793;DHT22;37850;53.178;6.376;2024-01-10T04:50:23;-4.50;99.90
51793;DHT22;37850;53.178;6.376;2024-01-10T04:52:49;-4.50;99.90
51793;DHT22;37850;53.178;6.376;2024-01-10T04:55:15;-4.50;99.90
51793;DHT22;37850;53.178;6.376;2024-01-10T04:57:41;-4.50;99.90
51793;DHT22;37850;53.178;6.376;2024-01-10T05:00:08;-4.50;99.90
51793;DHT22;37850;53.178;6.376;2024-01-10T05:02:34;-4.50;99.90
51793;DHT22;37850;53.178;6.376;2024-01-10T05:05:00;-4.20;99.90
51793;DHT22;37850;53.178;6.376;2024-01-10T05:07:26;-4.50;99.90
51793;DHT22;37850;53.178;6.376;2024-01-10T05:09:52;-4.50;99.90
51793;DHT22;37850;53.178;6.376;2024-01-10T05:12:18;-5.40;99.90
51793;DHT22;37850;53.178;6.376;2024-01-10T05:14:44;-2.90;99.90
51793;DHT22;37850;53.178;6.376;2024-01-10T05:17:10;-4.50;99.90
51793;DHT22;37850;53.178;6.376;2024-01-10T05:19:37;-4.40;99.90
51793;DHT22;37850;53.178;6.376;2024-01-10T05:22:04;-4.40;99.90
51793;DHT22;37850;53.178;6.376;2024-01-10T05:24:30;-4.30;99.90
51793;DHT22;37850;53.178;6.376;2024-01-10T05:26:56;-4.20;99.90
51793;DHT22;37850;53.178;6.376;2024-01-10T05:29:23;-4.40;99.90
51793;DHT22;37850;53.178;6.376;2024-01-10T05:31:49;-4.50;99.90
51793;DHT22;37850;53.178;6.376;2024-01-10T05:34:16;-4.40;99.90
51793;DHT22;37850;53.178;6.376;2024-01-10T05:36:42;-4.40;99.90
51793;DHT22;37850;53.178;6.376;2024-01-10T05:39:08;-4.40;99.90
51793;DHT22;37850;53.178;6.376;2024-01-10T05:41:35;-2.90;99.90
51793;DHT22;37850;53.178;6.376;2024-01-10T05:44:00;-4.10;99.90
51793;DHT22;37850;53.178;6.376;2024-01-10T05:46:26;-4.40;99.90
51793;DHT22;37850;53.178;6.376;2024-01-10T05:48:53;-4.40;99.90
51793;DHT22;37850;53.178;6.376;2024-01-10T05:51:22;-2.70;99.90
51793;DHT22;37850;53.178;6.376;2024-01-10T05:53:49;-4.40;99.90
51793;DHT22;37850;53.178;6.376;2024-01-10T05:56:15;-4.40;99.90
51793;DHT22;37850;53.178;6.376;2024-01-10T05:58:41;-4.40;99.90
51793;DHT22;37850;53.178;6.376;2024-01-10T06:01:07;-4.40;99.90
51793;DHT22;37850;53.178;6.376;2024-01-10T06:03:36;-4.40;99.90
51793;DHT22;37850;53.178;6.376;2024-01-10T06:06:02;-4.40;99.90
51793;DHT22;37850;53.178;6.376;2024-01-10T06:08:29;-4.30;99.90
51793;DHT22;37850;53.178;6.376;2024-01-10T06:10:54;-4.40;99.90
51793;DHT22;37850;53.178;6.376;2024-01-10T06:13:21;-4.00;99.90
51793;DHT22;37850;53.178;6.376;2024-01-10T06:15:46;-4.40;99.90
51793;DHT22;37850;53.178;6.376;2024-01-10T06:18:12;-4.30;99.90
51793;DHT22;37850;53.178;6.376;2024-01-10T06:20:38;-4.30;99.90
51793;DHT22;37850;53.178;6.376;2024-01-10T06:23:05;-4.30;99.90
51793;DHT22;37850;53.178;6.376;2024-01-10T06:25:30;-4.30;99.90
51793;DHT22;37850;53.178;6.376;2024-01-10T06:27:56;-4.40;99.90
51793;DHT22;37850;53.178;6.376;2024-01-10T06:30:23;-4.10;99.90
51793;DHT22;37850;53.178;6.376;2024-01-10T06:32:49;-3.60;99.90
51793;DHT22;37850;53.178;6.376;2024-01-10T06:35:14;-4.40;99.90
51793;DHT22;37850;53.178;6.376;2024-01-10T06:37:40;-4.40;99.90
51793;DHT22;37850;53.178;6.376;2024-01-10T06:40:10;-4.40;99.90
51793;DHT22;37850;53.178;6.376;2024-01-10T06:42:37;-4.40;99.90
51793;DHT22;37850;53.178;6.376;2024-01-10T06:45:05;-4.40;99.90
51793;DHT22;37850;53.178;6.376;2024-01-10T06:47:33;-4.40;99.90
51793;DHT22;37850;53.178;6.376;2024-01-10T06:49:59;-4.50;99.90
51793;DHT22;37850;53.178;6.376;2024-01-10T06:52:25;-4.50;99.90
51793;DHT22;37850;53.178;6.376;2024-01-10T06:54:51;-4.50;99.90
51793;DHT22;37850;53.178;6.376;2024-01-10T06:57:17;-3.90;99.90
51793;DHT22;37850;53.178;6.376;2024-01-10T06:59:43;-4.50;99.90
51793;DHT22;37850;53.178;6.376;2024-01-10T07:02:09;-4.50;99.90
51793;DHT22;37850;53.178;6.376;2024-01-10T07:04:37;-4.60;99.90
51793;DHT22;37850;53.178;6.376;2024-01-10T07:07:03;-5.40;99.90
51793;DHT22;37850;53.178;6.376;2024-01-10T07:09:29;-4.60;99.90
51793;DHT22;37850;53.178;6.376;2024-01-10T07:11:55;-4.60;99.90
51793;DHT22;37850;53.178;6.376;2024-01-10T07:14:21;-4.60;99.90
51793;DHT22;37850;53.178;6.376;2024-01-10T07:16:47;-4.70;99.90
51793;DHT22;37850;53.178;6.376;2024-01-10T07:19:14;-4.70;99.90
51793;DHT22;37850;53.178;6.376;2024-01-10T07:21:40;-4.70;99.90
51793;DHT22;37850;53.178;6.376;2024-01-10T07:24:07;-4.70;99.90
51793;DHT22;37850;53.178;6.376;2024-01-10T07:26:35;-4.50;99.90
51793;DHT22;37850;53.178;6.376;2024-01-10T07:29:01;-4.70;99.90
51793;DHT22;37850;53.178;6.376;2024-01-10T07:31:29;-4.70;99.90
51793;DHT22;37850;53.178;6.376;2024-01-10T07:33:57;-4.70;99.90
51793;DHT22;37850;53.178;6.376;2024-01-10T07:36:26;-4.70;99.90
51793;DHT22;37850;53.178;6.376;2024-01-10T07:38:56;-4.70;99.90
51793;DHT22;37850;53.178;6.376;2024-01-10T07:41:23;-4.70;99.90
51793;DHT22;37850;53.178;6.376;2024-01-10T07:43:49;-4.70;99.90
51793;DHT22;37850;53.178;6.376;2024-01-10T07:46:15;-3.20;99.90
51793;DHT22;37850;53.178;6.376;2024-01-10T07:48:41;-4.70;99.90
51793;DHT22;37850;53.178;6.376;2024-01-10T07:51:07;-4.70;99.90
51793;DHT22;37850;53.178;6.376;2024-01-10T07:53:33;-4.70;99.90
51793;DHT22;37850;53.178;6.376;2024-01-10T07:55:59;-4.70;99.90
51793;DHT22;37850;53.178;6.376;2024-01-10T07:58:25;-4.70;99.90
51793;DHT22;37850;53.178;6.376;2024-01-10T08:00:51;-4.70;99.90
51793;DHT22;37850;53.178;6.376;2024-01-10T08:03:17;-4.70;99.90
51793;DHT22;37850;53.178;6.376;2024-01-10T08:05:44;-4.70;99.90
51793;DHT22;37850;53.178;6.376;2024-01-10T08:08:09;-4.60;99.90
51793;DHT22;37850;53.178;6.376;2024-01-10T08:10:38;-4.70;99.90
51793;DHT22;37850;53.178;6.376;2024-01-10T08:13:06;-4.60;99.90
51793;DHT22;37850;53.178;6.376;2024-01-10T08:15:31;-4.70;99.90
51793;DHT22;37850;53.178;6.376;2024-01-10T08:18:00;-4.60;99.90
51793;DHT22;37850;53.178;6.376;2024-01-10T08:20:28;-4.60;99.90
51793;DHT22;37850;53.178;6.376;2024-01-10T08:22:54;-4.60;99.90
51793;DHT22;37850;53.178;6.376;2024-01-10T08:25:20;-4.60;99.90
51793;DHT22;37850;53.178;6.376;2024-01-10T08:27:46;-4.50;99.90
51793;DHT22;37850;53.178;6.376;2024-01-10T08:30:12;-4.50;99.90
51793;DHT22;37850;53.178;6.376;2024-01-10T08:32:38;-4.50;99.90
51793;DHT22;37850;53.178;6.376;2024-01-10T08:35:04;-4.40;99.90
51793;DHT22;37850;53.178;6.376;2024-01-10T08:37:30;-4.40;99.90
51793;DHT22;37850;53.178;6.376;2024-01-10T08:39:57;-4.40;99.90
51793;DHT22;37850;53.178;6.376;2024-01-10T08:42:23;-4.40;99.90
51793;DHT22;37850;53.178;6.376;2024-01-10T08:44:48;-4.40;99.90
51793;DHT22;37850;53.178;6.376;2024-01-10T08:47:15;-4.30;99.90
51793;DHT22;37850;53.178;6.376;2024-01-10T08:49:41;-4.50;99.90
51793;DHT22;37850;53.178;6.376;2024-01-10T08:52:06;-3.00;99.90
51793;DHT22;37850;53.178;6.376;2024-01-10T08:54:33;-4.30;99.90
51793;DHT22;37850;53.178;6.376;2024-01-10T08:56:59;-4.20;99.90
51793;DHT22;37850;53.178;6.376;2024-01-10T08:59:26;-3.90;99.90
51793;DHT22;37850;53.178;6.376;2024-01-10T09:01:53;-4.10;99.90
51793;DHT22;37850;53.178;6.376;2024-01-10T09:04:19;-4.10;99.90
51793;DHT22;37850;53.178;6.376;2024-01-10T09:06:46;-3.80;99.90
51793;DHT22;37850;53.178;6.376;2024-01-10T09:09:12;-3.70;99.90
51793;DHT22;37850;53.178;6.376;2024-01-10T09:11:39;-3.70;99.90
51793;DHT22;37850;53.178;6.376;2024-01-10T09:14:05;-4.00;99.90
51793;DHT22;37850;53.178;6.376;2024-01-10T09:16:31;-3.40;99.90
51793;DHT22;37850;53.178;6.376;2024-01-10T09:18:57;-3.40;99.90
51793;DHT22;37850;53.178;6.376;2024-01-10T09:21:24;-3.90;99.90
51793;DHT22;37850;53.178;6.376;2024-01-10T09:23:50;-3.20;99.90
51793;DHT22;37850;53.178;6.376;2024-01-10T09:26:17;-4.30;99.90
51793;DHT22;37850;53.178;6.376;2024-01-10T09:28:43;-3.90;99.90
51793;DHT22;37850;53.178;6.376;2024-01-10T09:31:09;-2.90;99.90
51793;DHT22;37850;53.178;6.376;2024-01-10T09:33:35;-3.80;99.90
51793;DHT22;37850;53.178;6.376;2024-01-10T09:36:01;-3.80;99.90
51793;DHT22;37850;53.178;6.376;2024-01-10T09:38:27;-3.80;99.90
51793;DHT22;37850;53.178;6.376;2024-01-10T09:40:58;-3.70;99.90
51793;DHT22;37850;53.178;6.376;2024-01-10T09:43:28;-3.70;99.90
51793;DHT22;37850;53.178;6.376;2024-01-10T09:45:58;-3.70;99.90
51793;DHT22;37850;53.178;6.376;2024-01-10T09:48:25;-3.70;99.90
51793;DHT22;37850;53.178;6.376;2024-01-10T09:50:52;-3.60;99.90
51793;DHT22;37850;53.178;6.376;2024-01-10T09:53:24;-3.60;99.90
51793;DHT22;37850;53.178;6.376;2024-01-10T09:55:52;-3.60;99.90
51793;DHT22;37850;53.178;6.376;2024-01-10T09:58:23;-3.60;99.90
51793;DHT22;37850;53.178;6.376;2024-01-10T10:00:52;-3.50;99.90
51793;DHT22;37850;53.178;6.376;2024-01-10T10:03:18;-3.50;99.90
51793;DHT22;37850;53.178;6.376;2024-01-10T10:05:45;-3.50;99.90
51793;DHT22;37850;53.178;6.376;2024-01-10T10:08:12;-3.50;99.90
51793;DHT22;37850;53.178;6.376;2024-01-10T10:10:40;-3.40;99.90
51793;DHT22;37850;53.178;6.376;2024-01-10T10:13:10;-3.40;99.90
51793;DHT22;37850;53.178;6.376;2024-01-10T10:15:58;-3.30;99.90
51793;DHT22;37850;53.178;6.376;2024-01-10T10:18:24;-3.30;99.90
51793;DHT22;37850;53.178;6.376;2024-01-10T10:23:31;-3.10;99.90
51793;DHT22;37850;53.178;6.376;2024-01-10T10:25:57;-3.20;99.90
51793;DHT22;37850;53.178;6.376;2024-01-10T10:28:28;-3.10;99.90
51793;DHT22;37850;53.178;6.376;2024-01-10T10:30:54;-3.10;99.90
51793;DHT22;37850;53.178;6.376;2024-01-10T10:33:21;-3.10;99.90
51793;DHT22;37850;53.178;6.376;2024-01-10T10:35:49;-3.00;99.90
51793;DHT22;37850;53.178;6.376;2024-01-10T10:38:16;-3.00;99.90
51793;DHT22;37850;53.178;6.376;2024-01-10T10:40:42;-2.20;99.90
51793;DHT22;37850;53.178;6.376;2024-01-10T10:43:12;-2.90;99.90
51793;DHT22;37850;53.178;6.376;2024-01-10T10:45:47;-2.90;99.90
51793;DHT22;37850;53.178;6.376;2024-01-10T10:48:17;-2.60;99.90
51793;DHT22;37850;53.178;6.376;2024-01-10T10:51:06;-2.70;99.90
51793;DHT22;37850;53.178;6.376;2024-01-10T10:53:34;-2.80;99.90
51793;DHT22;37850;53.178;6.376;2024-01-10T10:56:03;-2.00;99.90
51793;DHT22;37850;53.178;6.376;2024-01-10T10:58:43;-2.70;99.90
51793;DHT22;37850;53.178;6.376;2024-01-10T11:01:11;-2.00;99.90
51793;DHT22;37850;53.178;6.376;2024-01-10T11:03:41;-2.60;99.90
51793;DHT22;37850;53.178;6.376;2024-01-10T11:06:08;-2.50;99.90
51793;DHT22;37850;53.178;6.376;2024-01-10T11:08:51;-2.80;99.90
51793;DHT22;37850;53.178;6.376;2024-01-10T11:25:07;-2.20;99.90
51793;DHT22;37850;53.178;6.376;2024-01-10T11:27:33;-2.20;99.90
51793;DHT22;37850;53.178;6.376;2024-01-10T11:30:00;-2.10;99.90
51793;DHT22;37850;53.178;6.376;2024-01-10T11:32:27;-2.20;99.90
51793;DHT22;37850;53.178;6.376;2024-01-10T11:35:10;-2.10;99.90
51793;DHT22;37850;53.178;6.376;2024-01-10T11:37:43;-2.10;99.90
51793;DHT22;37850;53.178;6.376;2024-01-10T11:40:11;-2.10;99.90
51793;DHT22;37850;53.178;6.376;2024-01-10T11:42:45;-2.00;99.90
51793;DHT22;37850;53.178;6.376;2024-01-10T11:48:00;-1.70;99.90
51793;DHT22;37850;53.178;6.376;2024-01-10T11:50:27;-1.90;99.90
51793;DHT22;37850;53.178;6.376;2024-01-10T11:52:54;-1.90;99.90
51793;DHT22;37850;53.178;6.376;2024-01-10T11:55:47;-1.90;99.90
51793;DHT22;37850;53.178;6.376;2024-01-10T11:58:13;-1.90;99.90
51793;DHT22;37850;53.178;6.376;2024-01-10T12:00:43;-1.30;99.90
51793;DHT22;37850;53.178;6.376;2024-01-10T12:03:13;-1.30;99.90
51793;DHT22;37850;53.178;6.376;2024-01-10T12:05:39;-1.70;99.90
51793;DHT22;37850;53.178;6.376;2024-01-10T12:08:09;-1.70;99.90
51793;DHT22;37850;53.178;6.376;2024-01-10T12:10:35;-1.70;99.90
51793;DHT22;37850;53.178;6.376;2024-01-10T12:13:04;-0.80;99.90
51793;DHT22;37850;53.178;6.376;2024-01-10T12:15:30;-1.20;99.90
51793;DHT22;37850;53.178;6.376;2024-01-10T12:17:56;-1.60;99.90
51793;DHT22;37850;53.178;6.376;2024-01-10T12:20:22;-1.60;99.90
51793;DHT22;37850;53.178;6.376;2024-01-10T12:22:48;-1.60;99.90
51793;DHT22;37850;53.178;6.376;2024-01-10T12:25:14;-1.50;99.90
51793;DHT22;37850;53.178;6.376;2024-01-10T12:27:40;-0.30;99.90
51793;DHT22;37850;53.178;6.376;2024-01-10T12:30:06;-1.50;99.90
51793;DHT22;37850;53.178;6.376;2024-01-10T12:32:33;-1.50;99.90
51793;DHT22;37850;53.178;6.376;2024-01-10T12:35:03;-1.10;99.90
51793;DHT22;37850;53.178;6.376;2024-01-10T12:37:30;-1.40;99.90
51793;DHT22;37850;53.178;6.376;2024-01-10T12:39:56;-1.40;99.90
51793;DHT22;37850;53.178;6.376;2024-01-10T12:42:22;-1.40;99.90
51793;DHT22;37850;53.178;6.376;2024-01-10T12:44:49;-1.30;99.90
51793;DHT22;37850;53.178;6.376;2024-01-10T12:47:22;-1.30;99.90
51793;DHT22;37850;53.178;6.376;2024-01-10T12:49:49;-1.30;99.90
51793;DHT22;37850;53.178;6.376;2024-01-10T12:52:15;-1.30;99.90
51793;DHT22;37850;53.178;6.376;2024-01-10T12:54:41;-1.20;99.90
51793;DHT22;37850;53.178;6.376;2024-01-10T12:57:07;-1.20;99.90
51793;DHT22;37850;53.178;6.376;2024-01-10T12:59:33;-1.20;99.90
51793;DHT22;37850;53.178;6.376;2024-01-10T13:02:00;-1.20;99.90
51793;DHT22;37850;53.178;6.376;2024-01-10T13:04:26;-1.20;99.90
51793;DHT22;37850;53.178;6.376;2024-01-10T13:06:52;-1.20;99.90
51793;DHT22;37850;53.178;6.376;2024-01-10T13:09:17;-1.20;99.90
51793;DHT22;37850;53.178;6.376;2024-01-10T13:11:43;0.00;99.90
51793;DHT22;37850;53.178;6.376;2024-01-10T13:14:11;-1.10;99.90
51793;DHT22;37850;53.178;6.376;2024-01-10T13:16:38;-1.10;99.90
51793;DHT22;37850;53.178;6.376;2024-01-10T13:19:03;-1.10;99.90
51793;DHT22;37850;53.178;6.376;2024-01-10T13:21:30;-1.10;99.90
51793;DHT22;37850;53.178;6.376;2024-01-10T13:23:55;-1.10;99.90
51793;DHT22;37850;53.178;6.376;2024-01-10T13:26:21;-0.40;99.90
51793;DHT22;37850;53.178;6.376;2024-01-10T13:28:49;-1.10;99.90
51793;DHT22;37850;53.178;6.376;2024-01-10T13:31:15;-1.10;99.90
51793;DHT22;37850;53.178;6.376;2024-01-10T13:33:41;-1.00;99.90
51793;DHT22;37850;53.178;6.376;2024-01-10T13:36:08;-1.10;99.90
51793;DHT22;37850;53.178;6.376;2024-01-10T13:38:34;-1.00;99.90
51793;DHT22;37850;53.178;6.376;2024-01-10T13:41:00;-1.00;99.90
51793;DHT22;37850;53.178;6.376;2024-01-10T13:43:27;-1.00;99.90
51793;DHT22;37850;53.178;6.376;2024-01-10T13:45:53;-0.60;99.90
51793;DHT22;37850;53.178;6.376;2024-01-10T13:48:20;-1.00;99.90
51793;DHT22;37850;53.178;6.376;2024-01-10T13:50:46;-1.00;99.90
51793;DHT22;37850;53.178;6.376;2024-01-10T13:53:12;-1.00;99.90
51793;DHT22;37850;53.178;6.376;2024-01-10T13:55:38;-1.00;99.90
51793;DHT22;37850;53.178;6.376;2024-01-10T13:58:06;-0.80;99.90
51793;DHT22;37850;53.178;6.376;2024-01-10T14:00:33;-1.00;99.90
51793;DHT22;37850;53.178;6.376;2024-01-10T14:02:59;-1.00;99.90
51793;DHT22;37850;53.178;6.376;2024-01-10T14:05:26;-1.10;99.90
51793;DHT22;37850;53.178;6.376;2024-01-10T14:07:53;-1.10;99.90
51793;DHT22;37850;53.178;6.376;2024-01-10T14:10:18;-1.10;99.90
51793;DHT22;37850;53.178;6.376;2024-01-10T14:12:44;-0.80;99.90
51793;DHT22;37850;53.178;6.376;2024-01-10T14:15:11;-1.20;99.90
51793;DHT22;37850;53.178;6.376;2024-01-10T14:17:37;-1.20;99.90
51793;DHT22;37850;53.178;6.376;2024-01-10T14:20:03;-1.20;99.90
51793;DHT22;37850;53.178;6.376;2024-01-10T14:22:29;-1.20;99.90
51793;DHT22;37850;53.178;6.376;2024-01-10T14:24:55;-1.20;99.90
51793;DHT22;37850;53.178;6.376;2024-01-10T14:27:22;-1.20;99.90
51793;DHT22;37850;53.178;6.376;2024-01-10T14:29:47;-1.00;99.90
51793;DHT22;37850;53.178;6.376;2024-01-10T14:32:14;-1.30;99.90
51793;DHT22;37850;53.178;6.376;2024-01-10T14:34:40;-1.30;99.90
51793;DHT22;37850;53.178;6.376;2024-01-10T14:37:07;-1.30;99.90
51793;DHT22;37850;53.178;6.376;2024-01-10T14:39:34;-1.00;99.90
51793;DHT22;37850;53.178;6.376;2024-01-10T14:42:00;-1.30;99.90
51793;DHT22;37850;53.178;6.376;2024-01-10T14:44:27;-1.30;99.90
51793;DHT22;37850;53.178;6.376;2024-01-10T14:46:53;-1.30;99.90
51793;DHT22;37850;53.178;6.376;2024-01-10T14:49:19;-1.40;99.90
51793;DHT22;37850;53.178;6.376;2024-01-10T14:51:44;-1.40;99.90
51793;DHT22;37850;53.178;6.376;2024-01-10T14:54:10;-1.30;99.90
51793;DHT22;37850;53.178;6.376;2024-01-10T14:56:36;-0.90;99.90
51793;DHT22;37850;53.178;6.376;2024-01-10T14:59:02;-1.40;99.90
51793;DHT22;37850;53.178;6.376;2024-01-10T15:01:29;-1.40;99.90
51793;DHT22;37850;53.178;6.376;2024-01-10T15:03:55;-1.30;99.90
51793;DHT22;37850;53.178;6.376;2024-01-10T15:06:21;-1.40;99.90
51793;DHT22;37850;53.178;6.376;2024-01-10T15:08:47;-0.80;99.90
51793;DHT22;37850;53.178;6.376;2024-01-10T15:11:13;-1.30;99.90
51793;DHT22;37850;53.178;6.376;2024-01-10T15:13:39;-1.50;99.90
51793;DHT22;37850;53.178;6.376;2024-01-10T15:16:08;-1.50;99.90
51793;DHT22;37850;53.178;6.376;2024-01-10T15:18:34;-1.40;99.90
51793;DHT22;37850;53.178;6.376;2024-01-10T15:21:00;-1.50;99.90
51793;DHT22;37850;53.178;6.376;2024-01-10T15:23:26;-1.60;99.90
51793;DHT22;37850;53.178;6.376;2024-01-10T15:25:53;-1.60;99.90
51793;DHT22;37850;53.178;6.376;2024-01-10T15:28:18;-0.50;99.90
51793;DHT22;37850;53.178;6.376;2024-01-10T15:30:44;-1.60;99.90
51793;DHT22;37850;53.178;6.376;2024-01-10T15:33:10;-1.70;99.90
51793;DHT22;37850;53.178;6.376;2024-01-10T15:35:36;-1.50;99.90
51793;DHT22;37850;53.178;6.376;2024-01-10T15:38:02;-1.30;99.90
51793;DHT22;37850;53.178;6.376;2024-01-10T15:40:29;-1.70;99.90
51793;DHT22;37850;53.178;6.376;2024-01-10T15:42:54;-1.70;99.90
51793;DHT22;37850;53.178;6.376;2024-01-10T15:45:20;-1.60;99.90